sensor_id;sensor_type;location;lat;lon;timestamp;pressure;altitude;pressure_sealevel;temperature;humidity
45253;BME280;63171;50.520;30.486;2023-04-21T00:00:07;99638.00;;;10.73;71.84
45253;BME280;63171;50.520;30.486;2023-04-21T09:59:58;99636.53;;;13.93;46.53
45253;BME280;63171;50.520;30.486;2023-04-21T10:00:50;99620.03;;;13.79;46.34
45253;BME280;63171;50.520;30.486;2023-04-21T10:01:43;99626.25;;;13.78;46.69
45253;BME280;63171;50.520;30.486;2023-04-21T10:02:42;99621.44;;;13.95;46.86
45253;BME280;63171;50.520;30.486;2023-04-21T10:03:32;99626.44;;;14.09;47.01
45253;BME280;63171;50.520;30.486;2023-04-21T10:04:26;99634.06;;;14.12;46.99
45253;BME280;63171;50.520;30.486;2023-04-21T10:05:16;99628.56;;;14.15;47.03
45253;BME280;63171;50.520;30.486;2023-04-21T10:06:07;99635.06;;;14.00;47.01
45253;BME280;63171;50.520;30.486;2023-04-21T10:06:57;99622.13;;;14.08;47.24
45253;BME280;63171;50.520;30.486;2023-04-21T10:07:49;99625.94;;;14.15;47.19
45253;BME280;63171;50.520;30.486;2023-04-21T10:08:39;99630.69;;;13.89;47.11
45253;BME280;63171;50.520;30.486;2023-04-21T10:09:33;99637.00;;;13.75;47.09
45253;BME280;63171;50.520;30.486;2023-04-21T10:10:26;99626.97;;;13.69;47.26
45253;BME280;63171;50.520;30.486;2023-04-21T10:11:19;99642.75;;;13.80;47.44
45253;BME280;63171;50.520;30.486;2023-04-21T10:12:12;99635.44;;;13.84;47.69
45253;BME280;63171;50.520;30.486;2023-04-21T10:13:03;99641.94;;;13.69;47.64
45253;BME280;63171;50.520;30.486;2023-04-21T10:13:54;99645.53;;;13.56;47.63
45253;BME280;63171;50.520;30.486;2023-04-21T10:14:43;99638.47;;;13.57;47.74
45253;BME280;63171;50.520;30.486;2023-04-21T10:15:37;99635.25;;;13.53;47.88
45253;BME280;63171;50.520;30.486;2023-04-21T10:16:27;99637.63;;;13.56;47.97
45253;BME280;63171;50.520;30.486;2023-04-21T10:17:21;99638.47;;;13.46;48.09
45253;BME280;63171;50.520;30.486;2023-04-21T10:18:14;99645.06;;;13.51;48.34
45253;BME280;63171;50.520;30.486;2023-04-21T10:19:24;99652.00;;;13.52;48.50
45253;BME280;63171;50.520;30.486;2023-04-21T10:20:15;99645.63;;;13.55;48.66
45253;BME280;63171;50.520;30.486;2023-04-21T10:21:07;99665.97;;;13.53;48.72
45253;BME280;63171;50.520;30.486;2023-04-21T10:21:59;99703.06;;;13.50;48.62
45253;BME280;63171;50.520;30.486;2023-04-21T10:22:56;99657.13;;;13.43;48.99
45253;BME280;63171;50.520;30.486;2023-04-21T10:23:47;99651.50;;;13.36;49.00
45253;BME280;63171;50.520;30.486;2023-04-21T10:24:39;99642.88;;;13.34;49.14
45253;BME280;63171;50.520;30.486;2023-04-21T10:25:31;99642.63;;;13.26;48.96
45253;BME280;63171;50.520;30.486;2023-04-21T10:26:23;99664.53;;;13.38;49.34
45253;BME280;63171;50.520;30.486;2023-04-21T10:27:30;99656.16;;;13.44;49.27
45253;BME280;63171;50.520;30.486;2023-04-21T10:28:20;99641.56;;;13.40;49.56
45253;BME280;63171;50.520;30.486;2023-04-21T10:29:28;99673.16;;;13.51;49.85
45253;BME280;63171;50.520;30.486;2023-04-21T10:30:21;99661.06;;;13.37;49.77
45253;BME280;63171;50.520;30.486;2023-04-21T10:31:29;99680.66;;;13.33;49.86
45253;BME280;63171;50.520;30.486;2023-04-21T10:32:30;99660.03;;;13.16;50.18
45253;BME280;63171;50.520;30.486;2023-04-21T10:33:22;99658.88;;;13.20;50.00
45253;BME280;63171;50.520;30.486;2023-04-21T10:34:18;99691.31;;;13.08;50.03
45253;BME280;63171;50.520;30.486;2023-04-21T10:35:09;99701.84;;;13.08;50.29
45253;BME280;63171;50.520;30.486;2023-04-21T10:36:00;99680.34;;;13.14;50.52
45253;BME280;63171;50.520;30.486;2023-04-21T10:37:07;99659.00;;;13.18;50.62
45253;BME280;63171;50.520;30.486;2023-04-21T10:37:59;99672.44;;;13.02;50.57
45253;BME280;63171;50.520;30.486;2023-04-21T10:38:54;99650.72;;;13.12;50.82
45253;BME280;63171;50.520;30.486;2023-04-21T10:39:50;99652.28;;;13.14;50.99
45253;BME280;63171;50.520;30.486;2023-04-21T10:40:42;99651.59;;;13.23;50.85
45253;BME280;63171;50.520;30.486;2023-04-21T10:41:33;99663.06;;;13.34;51.03
45253;BME280;63171;50.520;30.486;2023-04-21T10:42:25;99638.69;;;13.31;51.03
45253;BME280;63171;50.520;30.486;2023-04-21T10:43:41;99644.56;;;13.57;51.15
45253;BME280;63171;50.520;30.486;2023-04-21T10:44:33;99654.72;;;13.62;51.20
45253;BME280;63171;50.520;30.486;2023-04-21T10:45:23;99646.22;;;13.58;51.26
45253;BME280;63171;50.520;30.486;2023-04-21T10:46:32;99634.53;;;13.40;51.00
45253;BME280;63171;50.520;30.486;2023-04-21T10:47:26;99642.75;;;13.58;51.03
45253;BME280;63171;50.520;30.486;2023-04-21T10:48:21;99633.31;;;13.55;50.93
45253;BME280;63171;50.520;30.486;2023-04-21T10:49:22;99652.22;;;13.60;50.83
45253;BME280;63171;50.520;30.486;2023-04-21T10:50:14;99622.91;;;13.65;51.01
45253;BME280;63171;50.520;30.486;2023-04-21T10:51:06;99633.31;;;13.78;51.32
45253;BME280;63171;50.520;30.486;2023-04-21T10:52:04;99622.44;;;13.71;51.00
45253;BME280;63171;50.520;30.486;2023-04-21T10:52:56;99632.50;;;13.66;50.82
45253;BME280;63171;50.520;30.486;2023-04-21T10:53:47;99619.66;;;13.61;51.26
45253;BME280;63171;50.520;30.486;2023-04-21T10:54:41;99635.13;;;13.77;51.18
45253;BME280;63171;50.520;30.486;2023-04-21T10:55:34;99630.78;;;13.87;51.31
45253;BME280;63171;50.520;30.486;2023-04-21T10:56:24;99629.47;;;13.93;51.35
45253;BME280;63171;50.520;30.486;2023-04-21T10:57:18;99634.59;;;14.06;51.30
45253;BME280;63171;50.520;30.486;2023-04-21T10:58:09;99634.38;;;13.86;51.08
45253;BME280;63171;50.520;30.486;2023-04-21T10:59:00;99635.94;;;13.78;51.09
45253;BME280;63171;50.520;30.486;2023-04-21T10:59:50;99663.31;;;13.75;51.00
45253;BME280;63171;50.520;30.486;2023-04-21T11:00:40;99657.47;;;13.38;50.77
45253;BME280;63171;50.520;30.486;2023-04-21T11:01:32;99653.19;;;13.37;50.60
45253;BME280;63171;50.520;30.486;2023-04-21T11:02:22;99636.78;;;13.34;50.77
45253;BME280;63171;50.520;30.486;2023-04-21T11:03:13;99639.06;;;13.49;51.16
45253;BME280;63171;50.520;30.486;2023-04-21T11:04:05;99637.75;;;13.66;51.05
45253;BME280;63171;50.520;30.486;2023-04-21T11:04:56;99636.53;;;13.81;51.11
45253;BME280;63171;50.520;30.486;2023-04-21T11:05:46;99635.81;;;13.90;51.27
45253;BME280;63171;50.520;30.486;2023-04-21T11:06:37;99630.03;;;13.97;51.04
45253;BME280;63171;50.520;30.486;2023-04-21T11:07:27;99628.50;;;14.05;51.14
45253;BME280;63171;50.520;30.486;2023-04-21T11:08:19;99622.25;;;14.06;51.01
45253;BME280;63171;50.520;30.486;2023-04-21T11:09:10;99630.69;;;13.78;50.81
45253;BME280;63171;50.520;30.486;2023-04-21T11:10:02;99631.47;;;14.01;50.86
45253;BME280;63171;50.520;30.486;2023-04-21T11:10:54;99626.81;;;14.04;50.89
45253;BME280;63171;50.520;30.486;2023-04-21T11:11:44;99635.56;;;14.05;50.73
45253;BME280;63171;50.520;30.486;2023-04-21T11:12:38;99627.16;;;14.11;50.91
45253;BME280;63171;50.520;30.486;2023-04-21T11:13:28;99628.09;;;14.10;50.74
45253;BME280;63171;50.520;30.486;2023-04-21T11:14:22;99630.97;;;14.18;50.74
45253;BME280;63171;50.520;30.486;2023-04-21T11:15:13;99628.06;;;14.32;50.55
45253;BME280;63171;50.520;30.486;2023-04-21T11:16:05;99639.44;;;14.33;50.50
45253;BME280;63171;50.520;30.486;2023-04-21T11:16:57;99632.78;;;14.17;50.37
45253;BME280;63171;50.520;30.486;2023-04-21T11:17:48;99624.34;;;14.24;50.51
45253;BME280;63171;50.520;30.486;2023-04-21T11:18:40;99622.16;;;14.29;50.39
45253;BME280;63171;50.520;30.486;2023-04-21T11:19:31;99648.63;;;14.27;50.27
45253;BME280;63171;50.520;30.486;2023-04-21T11:20:21;99628.53;;;14.26;50.15
45253;BME280;63171;50.520;30.486;2023-04-21T11:21:14;99625.69;;;14.18;50.08
45253;BME280;63171;50.520;30.486;2023-04-21T11:22:06;99617.16;;;14.26;49.93
45253;BME280;63171;50.520;30.486;2023-04-21T11:22:57;99626.88;;;14.25;49.93
45253;BME280;63171;50.520;30.486;2023-04-21T11:23:52;99622.25;;;14.06;49.75
45253;BME280;63171;50.520;30.486;2023-04-21T11:24:43;99625.75;;;13.96;49.59
45253;BME280;63171;50.520;30.486;2023-04-21T11:25:34;99616.44;;;13.80;49.56
45253;BME280;63171;50.520;30.486;2023-04-21T11:26:33;99612.25;;;13.89;49.57
45253;BME280;63171;50.520;30.486;2023-04-21T11:27:27;99617.38;;;13.90;49.52
45253;BME280;63171;50.520;30.486;2023-04-21T11:28:19;99608.03;;;13.98;49.60
45253;BME280;63171;50.520;30.486;2023-04-21T11:29:10;99607.63;;;14.13;49.65
45253;BME280;63171;50.520;30.486;2023-04-21T11:30:03;99611.84;;;14.37;49.80
45253;BME280;63171;50.520;30.486;2023-04-21T11:30:53;99601.91;;;14.40;49.79
45253;BME280;63171;50.520;30.486;2023-04-21T11:31:45;99607.03;;;14.53;49.85
45253;BME280;63171;50.520;30.486;2023-04-21T11:32:38;99609.34;;;14.67;49.76
45253;BME280;63171;50.520;30.486;2023-04-21T11:33:35;99611.28;;;14.65;49.54
45253;BME280;63171;50.520;30.486;2023-04-21T11:34:26;99603.97;;;14.37;49.32
45253;BME280;63171;50.520;30.486;2023-04-21T11:35:17;99607.63;;;14.13;49.42
45253;BME280;63171;50.520;30.486;2023-04-21T11:36:07;99608.59;;;14.12;49.29
45253;BME280;63171;50.520;30.486;2023-04-21T11:36:57;99605.75;;;14.36;49.41
45253;BME280;63171;50.520;30.486;2023-04-21T11:37:49;99599.53;;;14.37;49.43
45253;BME280;63171;50.520;30.486;2023-04-21T11:38:40;99591.72;;;14.47;49.40
45253;BME280;63171;50.520;30.486;2023-04-21T11:39:30;99597.13;;;14.45;49.17
45253;BME280;63171;50.520;30.486;2023-04-21T11:40:21;99594.81;;;14.41;49.20
45253;BME280;63171;50.520;30.486;2023-04-21T11:41:11;99599.91;;;14.33;49.22
45253;BME280;63171;50.520;30.486;2023-04-21T11:42:02;99599.34;;;14.29;48.97
45253;BME280;63171;50.520;30.486;2023-04-21T11:42:53;99592.97;;;14.32;49.01
45253;BME280;63171;50.520;30.486;2023-04-21T11:43:44;99591.75;;;14.36;48.79
45253;BME280;63171;50.520;30.486;2023-04-21T11:44:35;99600.22;;;14.39;49.14
45253;BME280;63171;50.520;30.486;2023-04-21T11:45:27;99595.56;;;14.43;48.86
45253;BME280;63171;50.520;30.486;2023-04-21T11:46:22;99589.75;;;14.60;48.88
45253;BME280;63171;50.520;30.486;2023-04-21T11:47:14;99594.50;;;14.66;49.25
45253;BME280;63171;50.520;30.486;2023-04-21T11:48:14;99583.97;;;14.87;49.19
45253;BME280;63171;50.520;30.486;2023-04-21T11:49:05;99585.38;;;14.91;49.09
45253;BME280;63171;50.520;30.486;2023-04-21T11:49:57;99582.75;;;14.91;49.09
45253;BME280;63171;50.520;30.486;2023-04-21T11:50:48;99582.22;;;14.97;48.95
45253;BME280;63171;50.520;30.486;2023-04-21T11:51:41;99575.44;;;15.04;48.95
45253;BME280;63171;50.520;30.486;2023-04-21T11:52:33;99573.91;;;15.02;48.88
45253;BME280;63171;50.520;30.486;2023-04-21T11:53:28;99572.19;;;15.12;48.80
45253;BME280;63171;50.520;30.486;2023-04-21T11:54:18;99567.81;;;15.01;48.42
45253;BME280;63171;50.520;30.486;2023-04-21T11:55:11;99572.88;;;14.93;48.50
45253;BME280;63171;50.520;30.486;2023-04-21T11:56:03;99574.25;;;14.88;48.39
45253;BME280;63171;50.520;30.486;2023-04-21T11:56:55;99567.13;;;14.78;48.20
45253;BME280;63171;50.520;30.486;2023-04-21T11:57:45;99576.69;;;14.79;48.21
45253;BME280;63171;50.520;30.486;2023-04-21T11:58:36;99571.84;;;15.05;48.39
45253;BME280;63171;50.520;30.486;2023-04-21T11:59:26;99575.53;;;14.93;48.08
45253;BME280;63171;50.520;30.486;2023-04-21T12:00:18;99568.78;;;15.00;48.31
45253;BME280;63171;50.520;30.486;2023-04-21T12:01:08;99572.75;;;15.16;48.30
45253;BME280;63171;50.520;30.486;2023-04-21T12:01:59;99588.78;;;15.03;48.10
45253;BME280;63171;50.520;30.486;2023-04-21T12:02:53;99579.19;;;15.02;48.25
45253;BME280;63171;50.520;30.486;2023-04-21T12:03:51;99576.84;;;15.08;47.99
45253;BME280;63171;50.520;30.486;2023-04-21T12:04:56;99570.38;;;15.22;47.93
45253;BME280;63171;50.520;30.486;2023-04-21T12:05:46;99563.91;;;15.26;47.80
45253;BME280;63171;50.520;30.486;2023-04-21T12:06:37;99561.53;;;15.23;47.73
45253;BME280;63171;50.520;30.486;2023-04-21T12:07:29;99573.75;;;15.24;47.53
45253;BME280;63171;50.520;30.486;2023-04-21T12:08:20;99569.41;;;15.14;47.51
45253;BME280;63171;50.520;30.486;2023-04-21T12:09:16;99565.91;;;14.83;47.47
45253;BME280;63171;50.520;30.486;2023-04-21T12:10:09;99562.88;;;14.87;47.49
45253;BME280;63171;50.520;30.486;2023-04-21T12:11:01;99560.94;;;14.89;47.48
45253;BME280;63171;50.520;30.486;2023-04-21T12:11:53;99557.59;;;14.87;47.37
45253;BME280;63171;50.520;30.486;2023-04-21T12:12:45;99553.47;;;14.94;47.44
45253;BME280;63171;50.520;30.486;2023-04-21T12:13:39;99558.66;;;15.05;47.51
45253;BME280;63171;50.520;30.486;2023-04-21T12:14:32;99548.88;;;15.17;47.52
45253;BME280;63171;50.520;30.486;2023-04-21T12:15:23;99549.88;;;15.26;47.43
45253;BME280;63171;50.520;30.486;2023-04-21T12:16:13;99548.38;;;15.33;47.31
45253;BME280;63171;50.520;30.486;2023-04-21T12:17:05;99544.75;;;15.24;47.24
45253;BME280;63171;50.520;30.486;2023-04-21T12:17:55;99547.66;;;15.31;47.29
45253;BME280;63171;50.520;30.486;2023-04-21T12:18:47;99548.06;;;15.26;47.20
45253;BME280;63171;50.520;30.486;2023-04-21T12:19:39;99552.50;;;14.95;46.83
45253;BME280;63171;50.520;30.486;2023-04-21T12:20:31;99547.00;;;14.77;46.79
45253;BME280;63171;50.520;30.486;2023-04-21T12:21:20;99544.94;;;14.81;46.92
45253;BME280;63171;50.520;30.486;2023-04-21T12:22:12;99551.84;;;15.03;47.15
45253;BME280;63171;50.520;30.486;2023-04-21T12:23:03;99544.56;;;15.16;47.21
45253;BME280;63171;50.520;30.486;2023-04-21T12:23:53;99537.94;;;15.31;47.28
45253;BME280;63171;50.520;30.486;2023-04-21T12:24:44;99536.19;;;15.42;47.25
45253;BME280;63171;50.520;30.486;2023-04-21T12:25:35;99538.69;;;15.43;47.13
45253;BME280;63171;50.520;30.486;2023-04-21T12:26:25;99539.78;;;15.41;46.97
45253;BME280;63171;50.520;30.486;2023-04-21T12:27:16;99540.06;;;15.37;47.00
45253;BME280;63171;50.520;30.486;2023-04-21T12:28:07;99542.28;;;15.42;46.83
45253;BME280;63171;50.520;30.486;2023-04-21T12:28:59;99541.47;;;15.42;46.69
45253;BME280;63171;50.520;30.486;2023-04-21T12:29:49;99535.38;;;15.51;46.72
45253;BME280;63171;50.520;30.486;2023-04-21T12:30:40;99545.25;;;15.58;46.72
45253;BME280;63171;50.520;30.486;2023-04-21T12:31:30;99534.69;;;15.58;46.61
45253;BME280;63171;50.520;30.486;2023-04-21T12:32:23;99533.22;;;15.35;46.25
45253;BME280;63171;50.520;30.486;2023-04-21T12:33:13;99539.47;;;15.24;45.98
45253;BME280;63171;50.520;30.486;2023-04-21T12:34:03;99536.66;;;14.95;46.05
45253;BME280;63171;50.520;30.486;2023-04-21T12:34:54;99531.91;;;15.10;46.08
45253;BME280;63171;50.520;30.486;2023-04-21T12:35:45;99532.63;;;15.22;46.20
45253;BME280;63171;50.520;30.486;2023-04-21T12:36:35;99531.69;;;15.32;46.20
45253;BME280;63171;50.520;30.486;2023-04-21T12:37:27;99535.22;;;15.43;46.18
45253;BME280;63171;50.520;30.486;2023-04-21T12:38:17;99532.56;;;15.43;46.04
45253;BME280;63171;50.520;30.486;2023-04-21T12:39:08;99531.69;;;15.32;46.00
45253;BME280;63171;50.520;30.486;2023-04-21T12:39:59;99527.28;;;15.43;46.12
45253;BME280;63171;50.520;30.486;2023-04-21T12:40:49;99538.69;;;15.43;46.15
45253;BME280;63171;50.520;30.486;2023-04-21T12:41:39;99527.56;;;15.40;46.03
45253;BME280;63171;50.520;30.486;2023-04-21T12:42:30;99533.00;;;15.38;45.88
45253;BME280;63171;50.520;30.486;2023-04-21T12:43:20;99533.13;;;15.46;45.89
45253;BME280;63171;50.520;30.486;2023-04-21T12:44:11;99526.34;;;15.53;46.07
45253;BME280;63171;50.520;30.486;2023-04-21T12:45:01;99532.59;;;15.52;45.80
45253;BME280;63171;50.520;30.486;2023-04-21T12:45:53;99525.53;;;15.53;45.80
45253;BME280;63171;50.520;30.486;2023-04-21T12:46:43;99528.47;;;15.59;45.77
45253;BME280;63171;50.520;30.486;2023-04-21T12:47:35;99527.38;;;15.62;45.68
45253;BME280;63171;50.520;30.486;2023-04-21T12:48:25;99527.13;;;15.65;45.61
45253;BME280;63171;50.520;30.486;2023-04-21T12:49:16;99529.34;;;15.70;45.59
45253;BME280;63171;50.520;30.486;2023-04-21T12:50:07;99522.22;;;15.60;45.51
45253;BME280;63171;50.520;30.486;2023-04-21T12:50:59;99520.19;;;15.33;45.20
45253;BME280;63171;50.520;30.486;2023-04-21T12:51:49;99524.19;;;15.28;45.24
45253;BME280;63171;50.520;30.486;2023-04-21T12:52:40;99525.34;;;15.45;45.47
45253;BME280;63171;50.520;30.486;2023-04-21T12:53:30;99529.69;;;15.55;45.38
45253;BME280;63171;50.520;30.486;2023-04-21T12:54:21;99528.47;;;15.59;45.34
45253;BME280;63171;50.520;30.486;2023-04-21T12:55:11;99523.06;;;15.61;45.38
45253;BME280;63171;50.520;30.486;2023-04-21T12:56:03;99530.44;;;15.67;45.23
45253;BME280;63171;50.520;30.486;2023-04-21T12:56:53;99527.25;;;15.63;45.28
45253;BME280;63171;50.520;30.486;2023-04-21T12:57:44;99521.41;;;15.70;45.15
45253;BME280;63171;50.520;30.486;2023-04-21T12:58:34;99521.28;;;15.71;45.08
45253;BME280;63171;50.520;30.486;2023-04-21T12:59:25;99524.84;;;15.51;44.91
45253;BME280;63171;50.520;30.486;2023-04-21T13:00:15;99525.91;;;15.38;44.85
45253;BME280;63171;50.520;30.486;2023-04-21T13:01:06;99530.91;;;15.42;44.89
45253;BME280;63171;50.520;30.486;2023-04-21T13:01:56;99515.34;;;15.48;45.14
45253;BME280;63171;50.520;30.486;2023-04-21T13:02:47;99523.06;;;15.61;45.01
45253;BME280;63171;50.520;30.486;2023-04-21T13:03:37;99525.16;;;15.67;45.15
45253;BME280;63171;50.520;30.486;2023-04-21T13:04:28;99519.91;;;15.67;45.02
45253;BME280;63171;50.520;30.486;2023-04-21T13:05:19;99526.84;;;15.68;44.92
45253;BME280;63171;50.520;30.486;2023-04-21T13:06:09;99529.91;;;15.63;44.95
45253;BME280;63171;50.520;30.486;2023-04-21T13:06:59;99525.44;;;15.64;44.69
45253;BME280;63171;50.520;30.486;2023-04-21T13:07:50;99529.75;;;15.75;44.89
45253;BME280;63171;50.520;30.486;2023-04-21T13:08:40;99527.38;;;15.72;44.90
45253;BME280;63171;50.520;30.486;2023-04-21T13:09:31;99529.63;;;15.66;44.86
45253;BME280;63171;50.520;30.486;2023-04-21T13:10:21;99532.06;;;15.58;44.83
45253;BME280;63171;50.520;30.486;2023-04-21T13:11:13;99521.41;;;15.70;44.88
45253;BME280;63171;50.520;30.486;2023-04-21T13:12:03;99527.19;;;15.54;44.64
45253;BME280;63171;50.520;30.486;2023-04-21T13:12:54;99518.38;;;15.64;44.95
45253;BME280;63171;50.520;30.486;2023-04-21T13:13:44;99519.19;;;15.75;45.03
45253;BME280;63171;50.520;30.486;2023-04-21T13:14:36;99519.19;;;15.75;44.98
45253;BME280;63171;50.520;30.486;2023-04-21T13:15:26;99517.38;;;15.75;44.98
45253;BME280;63171;50.520;30.486;2023-04-21T13:16:17;99523.50;;;15.76;44.90
45253;BME280;63171;50.520;30.486;2023-04-21T13:17:06;99514.47;;;15.69;44.73
45253;BME280;63171;50.520;30.486;2023-04-21T13:17:57;99516.56;;;15.65;44.71
45253;BME280;63171;50.520;30.486;2023-04-21T13:18:47;99520.72;;;15.68;44.73
45253;BME280;63171;50.520;30.486;2023-04-21T13:19:38;99516.97;;;15.70;44.64
45253;BME280;63171;50.520;30.486;2023-04-21T13:20:29;99516.97;;;15.70;44.50
45253;BME280;63171;50.520;30.486;2023-04-21T13:21:20;99510.31;;;15.66;44.68
45253;BME280;63171;50.520;30.486;2023-04-21T13:22:10;99512.66;;;15.69;44.59
45253;BME280;63171;50.520;30.486;2023-04-21T13:23:01;99511.00;;;15.68;44.38
45253;BME280;63171;50.520;30.486;2023-04-21T13:23:51;99508.50;;;15.66;44.39
45253;BME280;63171;50.520;30.486;2023-04-21T13:24:42;99510.69;;;15.61;44.33
45253;BME280;63171;50.520;30.486;2023-04-21T13:25:31;99519.44;;;15.62;44.32
45253;BME280;63171;50.520;30.486;2023-04-21T13:26:23;99512.66;;;15.69;44.17
45253;BME280;63171;50.520;30.486;2023-04-21T13:27:13;99510.72;;;15.71;44.35
45253;BME280;63171;50.520;30.486;2023-04-21T13:28:03;99512.94;;;15.76;44.28
45253;BME280;63171;50.520;30.486;2023-04-21T13:28:53;99506.41;;;15.70;44.05
45253;BME280;63171;50.520;30.486;2023-04-21T13:29:44;99508.22;;;15.70;43.96
45253;BME280;63171;50.520;30.486;2023-04-21T13:30:35;99513.06;;;15.74;44.18
45253;BME280;63171;50.520;30.486;2023-04-21T13:31:26;99505.75;;;15.78;43.95
45253;BME280;63171;50.520;30.486;2023-04-21T13:32:16;99508.38;;;15.78;43.91
45253;BME280;63171;50.520;30.486;2023-04-21T13:33:07;99505.47;;;15.81;44.04
45253;BME280;63171;50.520;30.486;2023-04-21T13:33:57;99501.97;;;15.80;44.07
45253;BME280;63171;50.520;30.486;2023-04-21T13:34:48;99502.97;;;15.79;43.87
45253;BME280;63171;50.520;30.486;2023-04-21T13:35:39;99505.16;;;15.74;43.84
45253;BME280;63171;50.520;30.486;2023-04-21T13:36:30;99503.63;;;15.72;43.76
45253;BME280;63171;50.520;30.486;2023-04-21T13:37:20;99503.22;;;15.66;43.83
45253;BME280;63171;50.520;30.486;2023-04-21T13:38:11;99500.13;;;15.61;43.71
45253;BME280;63171;50.520;30.486;2023-04-21T13:39:01;99504.41;;;15.53;43.63
45253;BME280;63171;50.520;30.486;2023-04-21T13:39:53;99501.63;;;15.54;43.77
45253;BME280;63171;50.520;30.486;2023-04-21T13:40:43;99493.03;;;15.52;43.61
45253;BME280;63171;50.520;30.486;2023-04-21T13:41:35;99489.81;;;15.58;43.82
45253;BME280;63171;50.520;30.486;2023-04-21T13:42:25;99492.47;;;15.58;43.62
45253;BME280;63171;50.520;30.486;2023-04-21T13:43:16;99492.66;;;15.66;43.89
45253;BME280;63171;50.520;30.486;2023-04-21T13:44:06;99490.84;;;15.67;43.67
45253;BME280;63171;50.520;30.486;2023-04-21T13:44:57;99490.53;;;15.60;43.87
45253;BME280;63171;50.520;30.486;2023-04-21T13:45:47;99495.56;;;15.63;43.71
45253;BME280;63171;50.520;30.486;2023-04-21T13:46:40;99502.66;;;15.63;43.77
45253;BME280;63171;50.520;30.486;2023-04-21T13:47:31;99491.00;;;15.65;43.80
45253;BME280;63171;50.520;30.486;2023-04-21T13:48:23;99489.56;;;15.61;43.84
45253;BME280;63171;50.520;30.486;2023-04-21T13:49:13;99496.97;;;15.68;43.83
45253;BME280;63171;50.520;30.486;2023-04-21T13:50:05;99489.75;;;15.70;43.77
45253;BME280;63171;50.520;30.486;2023-04-21T13:50:56;99490.97;;;15.75;43.72
45253;BME280;63171;50.520;30.486;2023-04-21T13:51:47;99486.81;;;15.73;43.73
45253;BME280;63171;50.520;30.486;2023-04-21T13:52:37;99488.47;;;15.74;43.76
45253;BME280;63171;50.520;30.486;2023-04-21T13:53:28;99488.22;;;15.77;43.75
45253;BME280;63171;50.520;30.486;2023-04-21T13:54:18;99491.69;;;15.77;43.76
45253;BME280;63171;50.520;30.486;2023-04-21T13:55:09;99487.94;;;15.70;43.60
45253;BME280;63171;50.520;30.486;2023-04-21T13:55:59;99490.78;;;15.57;43.59
45253;BME280;63171;50.520;30.486;2023-04-21T13:56:50;99491.06;;;15.54;43.67
45253;BME280;63171;50.520;30.486;2023-04-21T13:57:40;99492.81;;;15.34;43.50
45253;BME280;63171;50.520;30.486;2023-04-21T13:58:31;99489.69;;;15.50;43.74
45253;BME280;63171;50.520;30.486;2023-04-21T13:59:21;99494.16;;;15.59;43.69
45253;BME280;63171;50.520;30.486;2023-04-21T14:00:13;99490.16;;;15.65;43.79
45253;BME280;63171;50.520;30.486;2023-04-21T14:01:03;99485.16;;;15.72;43.75
45253;BME280;63171;50.520;30.486;2023-04-21T14:01:54;99484.88;;;15.75;43.66
45253;BME280;63171;50.520;30.486;2023-04-21T14:02:44;99491.69;;;15.77;44.07
45253;BME280;63171;50.520;30.486;2023-04-21T14:03:35;99487.25;;;15.68;43.71
45253;BME280;63171;50.520;30.486;2023-04-21T14:04:25;99486.69;;;15.64;43.74
45253;BME280;63171;50.520;30.486;2023-04-21T14:05:16;99493.19;;;15.60;43.49
45253;BME280;63171;50.520;30.486;2023-04-21T14:06:07;99488.06;;;15.69;43.76
45253;BME280;63171;50.520;30.486;2023-04-21T14:06:58;99484.88;;;15.75;43.66
45253;BME280;63171;50.520;30.486;2023-04-21T14:07:48;99488.47;;;15.74;43.61
45253;BME280;63171;50.520;30.486;2023-04-21T14:08:38;99483.66;;;15.79;43.54
45253;BME280;63171;50.520;30.486;2023-04-21T14:09:28;99486.28;;;15.79;43.52
45253;BME280;63171;50.520;30.486;2023-04-21T14:10:19;99489.75;;;15.79;43.56
45253;BME280;63171;50.520;30.486;2023-04-21T14:11:09;99490.16;;;15.75;43.44
45253;BME280;63171;50.520;30.486;2023-04-21T14:12:00;99484.44;;;15.60;43.25
45253;BME280;63171;50.520;30.486;2023-04-21T14:12:50;99491.75;;;15.37;43.32
45253;BME280;63171;50.520;30.486;2023-04-21T14:13:41;99479.53;;;15.36;43.31
45253;BME280;63171;50.520;30.486;2023-04-21T14:14:30;99490.59;;;15.30;43.40
45253;BME280;63171;50.520;30.486;2023-04-21T14:15:21;99491.28;;;15.32;43.52
45253;BME280;63171;50.520;30.486;2023-04-21T14:16:11;99489.66;;;15.41;43.45
45253;BME280;63171;50.520;30.486;2023-04-21T14:17:02;99489.69;;;15.50;43.44
45253;BME280;63171;50.520;30.486;2023-04-21T14:17:52;99488.03;;;15.49;43.60
45253;BME280;63171;50.520;30.486;2023-04-21T14:18:43;99492.03;;;15.44;43.49
45253;BME280;63171;50.520;30.486;2023-04-21T14:19:34;99482.59;;;15.51;43.43
45253;BME280;63171;50.520;30.486;2023-04-21T14:20:25;99487.16;;;15.39;43.37
45253;BME280;63171;50.520;30.486;2023-04-21T14:21:16;99483.00;;;15.36;43.62
45253;BME280;63171;50.520;30.486;2023-04-21T14:22:07;99483.78;;;15.27;43.42
45253;BME280;63171;50.520;30.486;2023-04-21T14:22:57;99487.25;;;15.28;43.47
45253;BME280;63171;50.520;30.486;2023-04-21T14:23:48;99489.38;;;15.44;43.73
45253;BME280;63171;50.520;30.486;2023-04-21T14:24:38;99488.69;;;15.42;43.53
45253;BME280;63171;50.520;30.486;2023-04-21T14:25:28;99484.38;;;15.41;43.53
45253;BME280;63171;50.520;30.486;2023-04-21T14:26:19;99488.13;;;15.48;43.54
45253;BME280;63171;50.520;30.486;2023-04-21T14:27:09;99490.09;;;15.55;43.53
45253;BME280;63171;50.520;30.486;2023-04-21T14:28:00;99486.91;;;15.52;43.51
45253;BME280;63171;50.520;30.486;2023-04-21T14:28:55;99484.28;;;15.52;43.84
45253;BME280;63171;50.520;30.486;2023-04-21T14:29:45;99480.25;;;15.57;43.52